sensor_id;sensor_type;location;lat;lon;timestamp;temperature;humidity
4530;DHT22;2277;51.626;7.516;2023-08-01T00:01:28;18.30;99.90
4530;DHT22;2277;51.626;7.516;2023-08-01T00:03:54;18.30;99.90
4530;DHT22;2277;51.626;7.516;2023-08-01T00:06:20;18.30;99.90
4530;DHT22;2277;51.626;7.516;2023-08-01T00:08:47;18.30;99.90
4530;DHT22;2277;51.626;7.516;2023-08-01T00:11:13;18.30;99.90
4530;DHT22;2277;51.626;7.516;2023-08-01T00:13:40;18.30;99.90
4530;DHT22;2277;51.626;7.516;2023-08-01T00:16:06;18.40;99.90
4530;DHT22;2277;51.626;7.516;2023-08-01T00:18:31;18.40;99.90
4530;DHT22;2277;51.626;7.516;2023-08-01T00:20:57;18.30;99.90
4530;DHT22;2277;51.626;7.516;2023-08-01T00:23:24;18.30;99.90
4530;DHT22;2277;51.626;7.516;2023-08-01T00:25:50;18.30;99.90
4530;DHT22;2277;51.626;7.516;2023-08-01T00:28:21;18.30;99.90
4530;DHT22;2277;51.626;7.516;2023-08-01T00:30:47;18.30;99.90
4530;DHT22;2277;51.626;7.516;2023-08-01T00:33:12;18.30;99.90
4530;DHT22;2277;51.626;7.516;2023-08-01T00:35:38;18.30;99.90
4530;DHT22;2277;51.626;7.516;2023-08-01T00:38:04;18.30;99.90
4530;DHT22;2277;51.626;7.516;2023-08-01T00:40:31;18.30;99.90
4530;DHT22;2277;51.626;7.516;2023-08-01T00:42:57;18.30;99.90
4530;DHT22;2277;51.626;7.516;2023-08-01T00:45:23;18.30;99.90
4530;DHT22;2277;51.626;7.516;2023-08-01T00:47:52;18.30;99.90
4530;DHT22;2277;51.626;7.516;2023-08-01T00:50:18;18.30;99.90
4530;DHT22;2277;51.626;7.516;2023-08-01T00:52:48;18.30;99.90
4530;DHT22;2277;51.626;7.516;2023-08-01T00:55:15;18.20;99.90
4530;DHT22;2277;51.626;7.516;2023-08-01T00:57:41;18.20;99.90
4530;DHT22;2277;51.626;7.516;2023-08-01T01:00:08;18.30;99.90
4530;DHT22;2277;51.626;7.516;2023-08-01T01:02:34;18.20;99.90
4530;DHT22;2277;51.626;7.516;2023-08-01T01:05:01;18.20;99.90
4530;DHT22;2277;51.626;7.516;2023-08-01T01:07:28;18.20;99.90
4530;DHT22;2277;51.626;7.516;2023-08-01T01:09:54;18.20;99.90
4530;DHT22;2277;51.626;7.516;2023-08-01T01:12:20;18.20;99.90
4530;DHT22;2277;51.626;7.516;2023-08-01T01:14:45;18.20;99.90
4530;DHT22;2277;51.626;7.516;2023-08-01T01:17:11;18.20;99.90
4530;DHT22;2277;51.626;7.516;2023-08-01T01:19:37;18.20;99.90
4530;DHT22;2277;51.626;7.516;2023-08-01T01:22:05;18.20;99.90
4530;DHT22;2277;51.626;7.516;2023-08-01T01:24:32;18.20;99.90
4530;DHT22;2277;51.626;7.516;2023-08-01T01:26:59;18.20;99.90
4530;DHT22;2277;51.626;7.516;2023-08-01T01:29:26;18.20;99.90
4530;DHT22;2277;51.626;7.516;2023-08-01T01:31:52;18.20;99.90
4530;DHT22;2277;51.626;7.516;2023-08-01T01:34:19;18.20;99.90
4530;DHT22;2277;51.626;7.516;2023-08-01T01:36:44;18.20;99.90
4530;DHT22;2277;51.626;7.516;2023-08-01T01:39:10;18.20;99.90
4530;DHT22;2277;51.626;7.516;2023-08-01T01:41:35;18.20;99.90
4530;DHT22;2277;51.626;7.516;2023-08-01T01:44:01;18.20;99.90
4530;DHT22;2277;51.626;7.516;2023-08-01T01:46:26;18.20;99.90
4530;DHT22;2277;51.626;7.516;2023-08-01T01:48:52;18.20;99.90
4530;DHT22;2277;51.626;7.516;2023-08-01T01:51:19;18.20;99.90
4530;DHT22;2277;51.626;7.516;2023-08-01T01:53:44;18.20;99.90
4530;DHT22;2277;51.626;7.516;2023-08-01T01:56:10;18.20;99.90
4530;DHT22;2277;51.626;7.516;2023-08-01T01:58:35;18.20;99.90
4530;DHT22;2277;51.626;7.516;2023-08-01T02:01:01;18.10;99.90
4530;DHT22;2277;51.626;7.516;2023-08-01T02:03:26;18.10;99.90
4530;DHT22;2277;51.626;7.516;2023-08-01T02:05:52;18.10;99.90
4530;DHT22;2277;51.626;7.516;2023-08-01T02:08:17;18.10;99.90
4530;DHT22;2277;51.626;7.516;2023-08-01T02:10:43;18.10;99.90
4530;DHT22;2277;51.626;7.516;2023-08-01T02:13:08;18.00;99.90
4530;DHT22;2277;51.626;7.516;2023-08-01T02:15:34;18.00;99.90
4530;DHT22;2277;51.626;7.516;2023-08-01T02:18:00;18.10;99.90
4530;DHT22;2277;51.626;7.516;2023-08-01T02:20:25;18.10;99.90
4530;DHT22;2277;51.626;7.516;2023-08-01T02:22:51;18.10;99.90
4530;DHT22;2277;51.626;7.516;2023-08-01T02:25:17;18.10;99.90
4530;DHT22;2277;51.626;7.516;2023-08-01T02:27:43;18.10;99.90
4530;DHT22;2277;51.626;7.516;2023-08-01T02:30:08;18.10;99.90
4530;DHT22;2277;51.626;7.516;2023-08-01T02:32:34;18.10;99.90
4530;DHT22;2277;51.626;7.516;2023-08-01T02:35:00;18.10;99.90
4530;DHT22;2277;51.626;7.516;2023-08-01T02:37:25;18.10;99.90
4530;DHT22;2277;51.626;7.516;2023-08-01T02:39:51;18.10;99.90
4530;DHT22;2277;51.626;7.516;2023-08-01T02:42:16;18.10;99.90
4530;DHT22;2277;51.626;7.516;2023-08-01T02:44:42;18.10;99.90
4530;DHT22;2277;51.626;7.516;2023-08-01T02:47:07;18.10;99.90
4530;DHT22;2277;51.626;7.516;2023-08-01T02:49:33;18.10;99.90
4530;DHT22;2277;51.626;7.516;2023-08-01T02:51:59;18.10;99.90
4530;DHT22;2277;51.626;7.516;2023-08-01T02:54:24;18.10;99.90
4530;DHT22;2277;51.626;7.516;2023-08-01T02:56:50;18.10;99.90
4530;DHT22;2277;51.626;7.516;2023-08-01T02:59:16;18.10;99.90
4530;DHT22;2277;51.626;7.516;2023-08-01T03:01:43;18.10;99.90
4530;DHT22;2277;51.626;7.516;2023-08-01T03:04:09;18.00;99.90
4530;DHT22;2277;51.626;7.516;2023-08-01T03:06:37;18.00;99.90
4530;DHT22;2277;51.626;7.516;2023-08-01T03:09:03;18.10;99.90
4530;DHT22;2277;51.626;7.516;2023-08-01T03:11:28;18.10;99.90
4530;DHT22;2277;51.626;7.516;2023-08-01T03:13:54;18.10;99.90
4530;DHT22;2277;51.626;7.516;2023-08-01T03:16:19;18.10;99.90
4530;DHT22;2277;51.626;7.516;2023-08-01T03:18:45;18.00;99.90
4530;DHT22;2277;51.626;7.516;2023-08-01T03:21:11;18.00;99.90
4530;DHT22;2277;51.626;7.516;2023-08-01T03:23:36;18.00;99.90
4530;DHT22;2277;51.626;7.516;2023-08-01T03:26:02;18.00;99.90
4530;DHT22;2277;51.626;7.516;2023-08-01T03:28:28;18.00;99.90
4530;DHT22;2277;51.626;7.516;2023-08-01T03:30:54;18.00;99.90
4530;DHT22;2277;51.626;7.516;2023-08-01T03:33:20;18.00;99.90
4530;DHT22;2277;51.626;7.516;2023-08-01T03:35:46;18.00;99.90
4530;DHT22;2277;51.626;7.516;2023-08-01T03:38:11;18.00;99.90
4530;DHT22;2277;51.626;7.516;2023-08-01T03:40:37;17.90;99.90
4530;DHT22;2277;51.626;7.516;2023-08-01T03:43:03;18.00;99.90
4530;DHT22;2277;51.626;7.516;2023-08-01T03:45:28;17.90;99.90
4530;DHT22;2277;51.626;7.516;2023-08-01T03:47:54;18.00;99.90
4530;DHT22;2277;51.626;7.516;2023-08-01T03:50:20;17.90;99.90
4530;DHT22;2277;51.626;7.516;2023-08-01T03:52:45;17.90;99.90
4530;DHT22;2277;51.626;7.516;2023-08-01T03:55:11;17.90;99.90
4530;DHT22;2277;51.626;7.516;2023-08-01T03:57:37;17.90;99.90
4530;DHT22;2277;51.626;7.516;2023-08-01T04:00:05;17.90;99.90
4530;DHT22;2277;51.626;7.516;2023-08-01T04:02:31;17.90;99.90
4530;DHT22;2277;51.626;7.516;2023-08-01T04:04:56;17.90;99.90
4530;DHT22;2277;51.626;7.516;2023-08-01T04:07:22;17.90;99.90
4530;DHT22;2277;51.626;7.516;2023-08-01T04:09:47;17.90;99.90
4530;DHT22;2277;51.626;7.516;2023-08-01T04:12:13;17.90;99.90
4530;DHT22;2277;51.626;7.516;2023-08-01T04:14:39;17.80;99.90
4530;DHT22;2277;51.626;7.516;2023-08-01T04:17:05;17.80;99.90
4530;DHT22;2277;51.626;7.516;2023-08-01T04:19:31;17.80;99.90
4530;DHT22;2277;51.626;7.516;2023-08-01T04:21:56;17.90;99.90
4530;DHT22;2277;51.626;7.516;2023-08-01T04:24:22;17.80;99.90
4530;DHT22;2277;51.626;7.516;2023-08-01T04:26:50;17.80;99.90
4530;DHT22;2277;51.626;7.516;2023-08-01T04:29:16;17.90;99.90
4530;DHT22;2277;51.626;7.516;2023-08-01T04:31:43;17.80;99.90
4530;DHT22;2277;51.626;7.516;2023-08-01T04:34:09;17.80;99.90
4530;DHT22;2277;51.626;7.516;2023-08-01T04:36:34;17.80;99.90
4530;DHT22;2277;51.626;7.516;2023-08-01T04:39:00;17.80;99.90
4530;DHT22;2277;51.626;7.516;2023-08-01T04:41:25;17.80;99.90
4530;DHT22;2277;51.626;7.516;2023-08-01T04:43:51;17.70;99.90
4530;DHT22;2277;51.626;7.516;2023-08-01T04:46:17;17.70;99.90
4530;DHT22;2277;51.626;7.516;2023-08-01T04:48:43;17.70;99.90
4530;DHT22;2277;51.626;7.516;2023-08-01T04:51:08;17.70;99.90
4530;DHT22;2277;51.626;7.516;2023-08-01T04:53:34;17.70;99.90
4530;DHT22;2277;51.626;7.516;2023-08-01T04:55:59;17.70;99.90
4530;DHT22;2277;51.626;7.516;2023-08-01T04:58:25;17.80;99.90
4530;DHT22;2277;51.626;7.516;2023-08-01T05:00:51;17.70;99.90
4530;DHT22;2277;51.626;7.516;2023-08-01T05:03:16;17.70;99.90
4530;DHT22;2277;51.626;7.516;2023-08-01T05:05:42;17.70;99.90
4530;DHT22;2277;51.626;7.516;2023-08-01T05:08:07;17.80;99.90
4530;DHT22;2277;51.626;7.516;2023-08-01T05:10:33;17.80;99.90
4530;DHT22;2277;51.626;7.516;2023-08-01T05:12:58;17.70;99.90
4530;DHT22;2277;51.626;7.516;2023-08-01T05:15:24;17.70;99.90
4530;DHT22;2277;51.626;7.516;2023-08-01T05:17:50;17.70;99.90
4530;DHT22;2277;51.626;7.516;2023-08-01T05:20:15;17.70;99.90
4530;DHT22;2277;51.626;7.516;2023-08-01T05:22:41;17.70;99.90
4530;DHT22;2277;51.626;7.516;2023-08-01T05:25:07;17.60;99.90
4530;DHT22;2277;51.626;7.516;2023-08-01T05:27:32;17.60;99.90
4530;DHT22;2277;51.626;7.516;2023-08-01T05:29:59;17.60;99.90
4530;DHT22;2277;51.626;7.516;2023-08-01T05:32:25;17.60;99.90
4530;DHT22;2277;51.626;7.516;2023-08-01T05:34:50;17.60;99.90
4530;DHT22;2277;51.626;7.516;2023-08-01T05:37:16;17.60;99.90
4530;DHT22;2277;51.626;7.516;2023-08-01T05:39:41;17.60;99.90
4530;DHT22;2277;51.626;7.516;2023-08-01T05:42:07;17.60;99.90
4530;DHT22;2277;51.626;7.516;2023-08-01T05:44:34;17.70;99.90
4530;DHT22;2277;51.626;7.516;2023-08-01T05:47:00;17.70;99.90
4530;DHT22;2277;51.626;7.516;2023-08-01T05:49:25;17.60;99.90
4530;DHT22;2277;51.626;7.516;2023-08-01T05:51:51;17.60;99.90
4530;DHT22;2277;51.626;7.516;2023-08-01T05:54:16;17.70;99.90
4530;DHT22;2277;51.626;7.516;2023-08-01T05:56:42;17.70;99.90
4530;DHT22;2277;51.626;7.516;2023-08-01T05:59:07;17.70;99.90
4530;DHT22;2277;51.626;7.516;2023-08-01T06:01:34;17.80;99.90
4530;DHT22;2277;51.626;7.516;2023-08-01T06:03:59;17.80;99.90
4530;DHT22;2277;51.626;7.516;2023-08-01T06:06:25;17.80;99.90
4530;DHT22;2277;51.626;7.516;2023-08-01T06:08:50;17.80;99.90
4530;DHT22;2277;51.626;7.516;2023-08-01T06:11:17;17.80;99.90
4530;DHT22;2277;51.626;7.516;2023-08-01T06:13:42;17.80;99.90
4530;DHT22;2277;51.626;7.516;2023-08-01T06:16:08;17.80;99.90
4530;DHT22;2277;51.626;7.516;2023-08-01T06:18:33;17.80;99.90
4530;DHT22;2277;51.626;7.516;2023-08-01T06:20:59;17.80;99.90
4530;DHT22;2277;51.626;7.516;2023-08-01T06:23:24;17.90;99.90
4530;DHT22;2277;51.626;7.516;2023-08-01T06:25:50;17.90;99.90
4530;DHT22;2277;51.626;7.516;2023-08-01T06:28:16;17.90;99.90
4530;DHT22;2277;51.626;7.516;2023-08-01T06:30:41;17.90;99.90
4530;DHT22;2277;51.626;7.516;2023-08-01T06:33:07;18.00;99.90
4530;DHT22;2277;51.626;7.516;2023-08-01T06:35:32;18.00;99.90
4530;DHT22;2277;51.626;7.516;2023-08-01T06:37:58;18.00;99.90
4530;DHT22;2277;51.626;7.516;2023-08-01T06:40:23;18.00;99.90
4530;DHT22;2277;51.626;7.516;2023-08-01T06:42:50;18.00;99.90
4530;DHT22;2277;51.626;7.516;2023-08-01T06:45:16;18.00;99.90
4530;DHT22;2277;51.626;7.516;2023-08-01T06:47:42;17.90;99.90
4530;DHT22;2277;51.626;7.516;2023-08-01T06:50:07;18.00;99.90
4530;DHT22;2277;51.626;7.516;2023-08-01T06:52:33;18.00;99.90
4530;DHT22;2277;51.626;7.516;2023-08-01T06:54:59;18.10;99.90
4530;DHT22;2277;51.626;7.516;2023-08-01T06:57:24;18.10;99.90
4530;DHT22;2277;51.626;7.516;2023-08-01T06:59:50;18.10;99.90
4530;DHT22;2277;51.626;7.516;2023-08-01T07:02:15;18.00;99.90
4530;DHT22;2277;51.626;7.516;2023-08-01T07:04:41;18.00;99.90
4530;DHT22;2277;51.626;7.516;2023-08-01T07:07:06;18.00;99.90
4530;DHT22;2277;51.626;7.516;2023-08-01T07:09:34;17.90;99.90
4530;DHT22;2277;51.626;7.516;2023-08-01T07:11:59;17.90;99.90
4530;DHT22;2277;51.626;7.516;2023-08-01T07:14:25;17.90;99.90
4530;DHT22;2277;51.626;7.516;2023-08-01T07:16:51;18.00;99.90
4530;DHT22;2277;51.626;7.516;2023-08-01T07:19:16;18.00;99.90
4530;DHT22;2277;51.626;7.516;2023-08-01T07:21:42;18.10;99.90
4530;DHT22;2277;51.626;7.516;2023-08-01T07:24:09;18.10;99.90
4530;DHT22;2277;51.626;7.516;2023-08-01T07:26:35;18.10;99.90
4530;DHT22;2277;51.626;7.516;2023-08-01T07:29:01;18.20;99.90
4530;DHT22;2277;51.626;7.516;2023-08-01T07:31:26;18.20;99.90
4530;DHT22;2277;51.626;7.516;2023-08-01T07:33:52;18.20;99.90
4530;DHT22;2277;51.626;7.516;2023-08-01T07:36:17;18.20;99.90
4530;DHT22;2277;51.626;7.516;2023-08-01T07:38:43;18.30;99.90
4530;DHT22;2277;51.626;7.516;2023-08-01T07:41:09;18.30;99.90
4530;DHT22;2277;51.626;7.516;2023-08-01T07:43:34;18.40;99.90
4530;DHT22;2277;51.626;7.516;2023-08-01T07:46:00;18.50;99.90
4530;DHT22;2277;51.626;7.516;2023-08-01T07:48:26;18.60;99.90
4530;DHT22;2277;51.626;7.516;2023-08-01T07:50:51;18.70;99.90
4530;DHT22;2277;51.626;7.516;2023-08-01T07:53:17;18.80;99.90
4530;DHT22;2277;51.626;7.516;2023-08-01T07:55:42;19.00;99.90
4530;DHT22;2277;51.626;7.516;2023-08-01T07:58:08;19.10;99.90
4530;DHT22;2277;51.626;7.516;2023-08-01T08:00:37;19.10;99.90
4530;DHT22;2277;51.626;7.516;2023-08-01T08:03:03;19.30;99.90
4530;DHT22;2277;51.626;7.516;2023-08-01T08:05:28;19.30;99.90
4530;DHT22;2277;51.626;7.516;2023-08-01T08:07:54;19.50;99.90
4530;DHT22;2277;51.626;7.516;2023-08-01T08:10:19;19.50;99.90
4530;DHT22;2277;51.626;7.516;2023-08-01T08:12:45;19.60;99.90
4530;DHT22;2277;51.626;7.516;2023-08-01T08:15:11;19.60;99.90
4530;DHT22;2277;51.626;7.516;2023-08-01T08:17:38;19.50;99.90
4530;DHT22;2277;51.626;7.516;2023-08-01T08:20:04;19.50;99.90
4530;DHT22;2277;51.626;7.516;2023-08-01T08:22:31;19.50;99.90
4530;DHT22;2277;51.626;7.516;2023-08-01T08:24:57;19.60;99.90
4530;DHT22;2277;51.626;7.516;2023-08-01T08:27:22;19.50;99.90
4530;DHT22;2277;51.626;7.516;2023-08-01T08:29:48;19.50;99.90
4530;DHT22;2277;51.626;7.516;2023-08-01T08:32:13;19.50;99.90
4530;DHT22;2277;51.626;7.516;2023-08-01T08:34:39;19.60;99.90
4530;DHT22;2277;51.626;7.516;2023-08-01T08:37:05;19.70;99.90
4530;DHT22;2277;51.626;7.516;2023-08-01T08:39:30;19.80;99.90
4530;DHT22;2277;51.626;7.516;2023-08-01T08:41:57;20.00;99.90
4530;DHT22;2277;51.626;7.516;2023-08-01T08:44:22;20.00;99.90
4530;DHT22;2277;51.626;7.516;2023-08-01T08:46:51;20.10;99.90
4530;DHT22;2277;51.626;7.516;2023-08-01T08:49:18;20.20;99.90
4530;DHT22;2277;51.626;7.516;2023-08-01T08:51:45;20.10;99.90
4530;DHT22;2277;51.626;7.516;2023-08-01T08:54:14;20.10;99.90
4530;DHT22;2277;51.626;7.516;2023-08-01T08:56:40;20.10;99.90
4530;DHT22;2277;51.626;7.516;2023-08-01T08:59:10;20.10;99.90
4530;DHT22;2277;51.626;7.516;2023-08-01T09:01:39;20.30;99.90
4530;DHT22;2277;51.626;7.516;2023-08-01T09:04:06;20.50;99.90
4530;DHT22;2277;51.626;7.516;2023-08-01T09:06:34;20.70;99.90
4530;DHT22;2277;51.626;7.516;2023-08-01T09:09:10;21.00;99.90
4530;DHT22;2277;51.626;7.516;2023-08-01T09:11:54;21.10;99.90
4530;DHT22;2277;51.626;7.516;2023-08-01T09:14:22;21.20;99.90
4530;DHT22;2277;51.626;7.516;2023-08-01T09:16:48;21.30;99.90
4530;DHT22;2277;51.626;7.516;2023-08-01T09:19:18;21.20;99.90
4530;DHT22;2277;51.626;7.516;2023-08-01T09:21:44;21.20;99.90
4530;DHT22;2277;51.626;7.516;2023-08-01T09:24:15;21.40;99.90
4530;DHT22;2277;51.626;7.516;2023-08-01T09:26:41;21.50;99.90
4530;DHT22;2277;51.626;7.516;2023-08-01T09:29:08;21.60;99.90
4530;DHT22;2277;51.626;7.516;2023-08-01T09:31:35;21.80;99.90
4530;DHT22;2277;51.626;7.516;2023-08-01T09:34:03;21.90;99.90
4530;DHT22;2277;51.626;7.516;2023-08-01T09:36:34;22.10;99.90
4530;DHT22;2277;51.626;7.516;2023-08-01T09:39:04;22.20;99.90
4530;DHT22;2277;51.626;7.516;2023-08-01T09:41:30;22.10;99.90
4530;DHT22;2277;51.626;7.516;2023-08-01T09:43:56;22.00;99.90
4530;DHT22;2277;51.626;7.516;2023-08-01T09:46:23;21.90;99.90
4530;DHT22;2277;51.626;7.516;2023-08-01T09:48:48;21.90;99.90
4530;DHT22;2277;51.626;7.516;2023-08-01T09:51:16;22.00;99.90
4530;DHT22;2277;51.626;7.516;2023-08-01T09:53:48;22.10;99.90
4530;DHT22;2277;51.626;7.516;2023-08-01T09:56:22;22.10;99.90
4530;DHT22;2277;51.626;7.516;2023-08-01T09:58:49;22.10;99.90
4530;DHT22;2277;51.626;7.516;2023-08-01T10:01:17;22.20;99.90
4530;DHT22;2277;51.626;7.516;2023-08-01T10:03:46;22.30;99.90
4530;DHT22;2277;51.626;7.516;2023-08-01T10:06:18;22.40;99.90
4530;DHT22;2277;51.626;7.516;2023-08-01T10:08:45;22.40;99.90
4530;DHT22;2277;51.626;7.516;2023-08-01T10:11:14;22.20;99.90
4530;DHT22;2277;51.626;7.516;2023-08-01T10:13:41;21.80;99.90
4530;DHT22;2277;51.626;7.516;2023-08-01T10:16:08;21.70;99.90
4530;DHT22;2277;51.626;7.516;2023-08-01T10:18:33;21.60;99.90
4530;DHT22;2277;51.626;7.516;2023-08-01T10:21:00;21.60;99.90
4530;DHT22;2277;51.626;7.516;2023-08-01T10:23:27;21.70;99.90
4530;DHT22;2277;51.626;7.516;2023-08-01T10:25:53;21.90;99.90
4530;DHT22;2277;51.626;7.516;2023-08-01T10:28:18;22.10;99.90
4530;DHT22;2277;51.626;7.516;2023-08-01T10:30:44;22.20;99.90
4530;DHT22;2277;51.626;7.516;2023-08-01T10:33:10;22.30;99.90
4530;DHT22;2277;51.626;7.516;2023-08-01T10:35:39;22.30;99.90
4530;DHT22;2277;51.626;7.516;2023-08-01T10:38:09;22.40;99.90
4530;DHT22;2277;51.626;7.516;2023-08-01T10:40:42;22.50;99.90
4530;DHT22;2277;51.626;7.516;2023-08-01T10:43:21;22.60;99.90
4530;DHT22;2277;51.626;7.516;2023-08-01T10:45:47;22.70;99.90
4530;DHT22;2277;51.626;7.516;2023-08-01T10:48:12;22.80;99.90
4530;DHT22;2277;51.626;7.516;2023-08-01T10:50:40;23.00;99.90
4530;DHT22;2277;51.626;7.516;2023-08-01T10:53:08;23.20;99.90
4530;DHT22;2277;51.626;7.516;2023-08-01T10:55:45;23.40;99.90
4530;DHT22;2277;51.626;7.516;2023-08-01T10:58:11;23.70;99.90
4530;DHT22;2277;51.626;7.516;2023-08-01T11:00:37;23.80;99.90
4530;DHT22;2277;51.626;7.516;2023-08-01T11:03:03;23.90;99.90
4530;DHT22;2277;51.626;7.516;2023-08-01T11:05:29;23.80;99.90
4530;DHT22;2277;51.626;7.516;2023-08-01T11:08:02;23.70;99.90
4530;DHT22;2277;51.626;7.516;2023-08-01T11:10:30;23.60;99.90
4530;DHT22;2277;51.626;7.516;2023-08-01T11:12:56;23.60;99.90
4530;DHT22;2277;51.626;7.516;2023-08-01T11:15:22;23.50;99.90
4530;DHT22;2277;51.626;7.516;2023-08-01T11:17:50;23.40;99.90
4530;DHT22;2277;51.626;7.516;2023-08-01T11:20:18;23.10;99.90
4530;DHT22;2277;51.626;7.516;2023-08-01T11:25:17;22.80;99.90
4530;DHT22;2277;51.626;7.516;2023-08-01T11:27:43;22.50;99.90
4530;DHT22;2277;51.626;7.516;2023-08-01T11:30:08;22.20;99.90
4530;DHT22;2277;51.626;7.516;2023-08-01T11:32:35;22.10;99.90
4530;DHT22;2277;51.626;7.516;2023-08-01T11:35:02;22.10;99.90
4530;DHT22;2277;51.626;7.516;2023-08-01T11:37:28;22.00;99.90
4530;DHT22;2277;51.626;7.516;2023-08-01T11:39:54;21.90;99.90
4530;DHT22;2277;51.626;7.516;2023-08-01T11:42:20;21.80;99.90
4530;DHT22;2277;51.626;7.516;2023-08-01T11:44:46;21.90;99.90
4530;DHT22;2277;51.626;7.516;2023-08-01T11:47:17;22.00;99.90
4530;DHT22;2277;51.626;7.516;2023-08-01T11:49:47;22.10;99.90
4530;DHT22;2277;51.626;7.516;2023-08-01T11:52:27;22.40;99.90
4530;DHT22;2277;51.626;7.516;2023-08-01T11:54:53;22.70;99.90
4530;DHT22;2277;51.626;7.516;2023-08-01T11:57:22;22.60;99.90
4530;DHT22;2277;51.626;7.516;2023-08-01T11:59:54;22.50;99.90
4530;DHT22;2277;51.626;7.516;2023-08-01T12:02:23;22.60;99.90
4530;DHT22;2277;51.626;7.516;2023-08-01T12:04:49;22.60;99.90
4530;DHT22;2277;51.626;7.516;2023-08-01T12:07:15;22.70;99.90
4530;DHT22;2277;51.626;7.516;2023-08-01T12:09:41;22.80;99.90
4530;DHT22;2277;51.626;7.516;2023-08-01T12:12:08;22.90;99.90
4530;DHT22;2277;51.626;7.516;2023-08-01T12:14:39;23.00;99.90
4530;DHT22;2277;51.626;7.516;2023-08-01T12:17:05;23.00;99.90
4530;DHT22;2277;51.626;7.516;2023-08-01T12:19:31;23.20;99.90
4530;DHT22;2277;51.626;7.516;2023-08-01T12:21:59;23.40;99.90
4530;DHT22;2277;51.626;7.516;2023-08-01T12:24:25;23.50;99.90
4530;DHT22;2277;51.626;7.516;2023-08-01T12:26:50;23.60;99.90
4530;DHT22;2277;51.626;7.516;2023-08-01T12:29:16;23.50;99.90
4530;DHT22;2277;51.626;7.516;2023-08-01T12:31:41;23.50;99.90
4530;DHT22;2277;51.626;7.516;2023-08-01T12:34:07;23.70;99.90
4530;DHT22;2277;51.626;7.516;2023-08-01T12:36:33;23.80;99.90
4530;DHT22;2277;51.626;7.516;2023-08-01T12:38:58;24.00;99.90
4530;DHT22;2277;51.626;7.516;2023-08-01T12:41:24;24.20;99.90
4530;DHT22;2277;51.626;7.516;2023-08-01T12:43:50;24.10;99.90
4530;DHT22;2277;51.626;7.516;2023-08-01T12:46:16;24.20;99.90
4530;DHT22;2277;51.626;7.516;2023-08-01T12:48:41;24.20;99.90
4530;DHT22;2277;51.626;7.516;2023-08-01T12:51:08;24.10;99.90
4530;DHT22;2277;51.626;7.516;2023-08-01T12:53:33;24.20;99.90
4530;DHT22;2277;51.626;7.516;2023-08-01T12:55:59;24.30;99.90
4530;DHT22;2277;51.626;7.516;2023-08-01T12:58:24;24.20;99.90
4530;DHT22;2277;51.626;7.516;2023-08-01T13:00:50;23.90;99.90
4530;DHT22;2277;51.626;7.516;2023-08-01T13:03:15;24.00;99.90
4530;DHT22;2277;51.626;7.516;2023-08-01T13:05:42;23.90;99.90
4530;DHT22;2277;51.626;7.516;2023-08-01T13:08:08;24.10;99.90
4530;DHT22;2277;51.626;7.516;2023-08-01T13:10:35;24.20;99.90
4530;DHT22;2277;51.626;7.516;2023-08-01T13:13:01;24.40;99.90
4530;DHT22;2277;51.626;7.516;2023-08-01T13:15:28;24.50;99.90
4530;DHT22;2277;51.626;7.516;2023-08-01T13:17:54;24.50;99.90
4530;DHT22;2277;51.626;7.516;2023-08-01T13:20:20;24.40;99.90
4530;DHT22;2277;51.626;7.516;2023-08-01T13:22:46;24.40;99.90
4530;DHT22;2277;51.626;7.516;2023-08-01T13:25:15;24.40;99.90
4530;DHT22;2277;51.626;7.516;2023-08-01T13:27:42;24.50;99.90
4530;DHT22;2277;51.626;7.516;2023-08-01T13:30:08;24.50;99.90
4530;DHT22;2277;51.626;7.516;2023-08-01T13:32:34;24.50;99.90
4530;DHT22;2277;51.626;7.516;2023-08-01T13:35:00;24.60;99.90
4530;DHT22;2277;51.626;7.516;2023-08-01T13:37:26;24.60;99.90
4530;DHT22;2277;51.626;7.516;2023-08-01T13:39:52;24.50;99.90
4530;DHT22;2277;51.626;7.516;2023-08-01T13:42:17;24.60;99.90
4530;DHT22;2277;51.626;7.516;2023-08-01T13:44:43;24.70;99.90
4530;DHT22;2277;51.626;7.516;2023-08-01T13:47:09;24.70;99.90
4530;DHT22;2277;51.626;7.516;2023-08-01T13:49:34;24.80;99.90
4530;DHT22;2277;51.626;7.516;2023-08-01T13:52:00;25.00;99.90
4530;DHT22;2277;51.626;7.516;2023-08-01T13:54:26;25.30;99.90
4530;DHT22;2277;51.626;7.516;2023-08-01T13:56:52;25.30;99.90
4530;DHT22;2277;51.626;7.516;2023-08-01T13:59:19;25.30;99.90
4530;DHT22;2277;51.626;7.516;2023-08-01T14:01:45;25.40;99.90
4530;DHT22;2277;51.626;7.516;2023-08-01T14:04:11;25.50;99.90
4530;DHT22;2277;51.626;7.516;2023-08-01T14:06:39;25.60;99.90
4530;DHT22;2277;51.626;7.516;2023-08-01T14:09:06;25.70;99.90
4530;DHT22;2277;51.626;7.516;2023-08-01T14:11:32;25.60;99.90
4530;DHT22;2277;51.626;7.516;2023-08-01T14:13:57;25.50;99.90
4530;DHT22;2277;51.626;7.516;2023-08-01T14:16:23;25.50;99.90
4530;DHT22;2277;51.626;7.516;2023-08-01T14:18:49;25.70;99.90
4530;DHT22;2277;51.626;7.516;2023-08-01T14:21:14;25.90;99.90
4530;DHT22;2277;51.626;7.516;2023-08-01T14:23:40;25.90;99.90
4530;DHT22;2277;51.626;7.516;2023-08-01T14:26:07;25.90;99.90
4530;DHT22;2277;51.626;7.516;2023-08-01T14:28:32;26.00;99.90
4530;DHT22;2277;51.626;7.516;2023-08-01T14:31:00;25.90;99.90
4530;DHT22;2277;51.626;7.516;2023-08-01T14:33:27;25.90;99.90
4530;DHT22;2277;51.626;7.516;2023-08-01T14:35:53;25.90;99.90
4530;DHT22;2277;51.626;7.516;2023-08-01T14:38:19;26.00;99.90
4530;DHT22;2277;51.626;7.516;2023-08-01T14:40:44;26.00;99.90
4530;DHT22;2277;51.626;7.516;2023-08-01T14:43:10;25.80;99.90
4530;DHT22;2277;51.626;7.516;2023-08-01T14:45:40;25.70;99.90
4530;DHT22;2277;51.626;7.516;2023-08-01T14:48:06;25.80;99.90
4530;DHT22;2277;51.626;7.516;2023-08-01T14:50:32;25.80;99.90
4530;DHT22;2277;51.626;7.516;2023-08-01T14:52:58;25.70;99.90
4530;DHT22;2277;51.626;7.516;2023-08-01T14:55:23;25.70;99.90
4530;DHT22;2277;51.626;7.516;2023-08-01T14:57:49;25.70;99.90
4530;DHT22;2277;51.626;7.516;2023-08-01T15:00:15;25.80;99.90
4530;DHT22;2277;51.626;7.516;2023-08-01T15:02:41;25.90;99.90
4530;DHT22;2277;51.626;7.516;2023-08-01T15:05:07;25.90;99.90
4530;DHT22;2277;51.626;7.516;2023-08-01T15:07:33;26.00;99.90
4530;DHT22;2277;51.626;7.516;2023-08-01T15:09:59;26.20;99.90
4530;DHT22;2277;51.626;7.516;2023-08-01T15:12:24;26.20;99.90
4530;DHT22;2277;51.626;7.516;2023-08-01T15:14:52;26.20;99.90
4530;DHT22;2277;51.626;7.516;2023-08-01T15:17:18;26.20;99.90
4530;DHT22;2277;51.626;7.516;2023-08-01T15:19:43;26.00;99.90
4530;DHT22;2277;51.626;7.516;2023-08-01T15:22:10;26.00;99.90
4530;DHT22;2277;51.626;7.516;2023-08-01T15:24:35;26.10;99.90
4530;DHT22;2277;51.626;7.516;2023-08-01T15:27:01;26.20;99.90
4530;DHT22;2277;51.626;7.516;2023-08-01T15:29:26;26.20;99.90
4530;DHT22;2277;51.626;7.516;2023-08-01T15:31:52;26.20;99.90
4530;DHT22;2277;51.626;7.516;2023-08-01T15:34:18;26.20;99.90
4530;DHT22;2277;51.626;7.516;2023-08-01T15:36:46;26.30;99.90
4530;DHT22;2277;51.626;7.516;2023-08-01T15:39:15;26.30;99.90
4530;DHT22;2277;51.626;7.516;2023-08-01T15:41:41;26.30;99.90
4530;DHT22;2277;51.626;7.516;2023-08-01T15:44:07;26.40;99.90
4530;DHT22;2277;51.626;7.516;2023-08-01T15:46:33;26.40;99.90
4530;DHT22;2277;51.626;7.516;2023-08-01T15:48:59;26.40;99.90
4530;DHT22;2277;51.626;7.516;2023-08-01T15:51:25;26.30;99.90
4530;DHT22;2277;51.626;7.516;2023-08-01T15:53:51;26.20;99.90
4530;DHT22;2277;51.626;7.516;2023-08-01T15:56:16;26.10;99.90
4530;DHT22;2277;51.626;7.516;2023-08-01T15:58:42;26.00;99.90